Aeroporto :
LOGIN :

Iscrizione | Disclaimer

   EN    FR    IT 

 










Sommario :    VFR   VFR Marginale   IFR   IFR Intensivo   IFR Molto Intensivo
Visibilità : 
Base nubi : 
>= 8 km
>= 3000ft
5 / 8 km
1000 / 3000 ft
1500m / 5 km
500 / 1000 ft
800 / 1500m
200 / 500 ft
< 800m
< 200 ft
Simboli :   Temporali  Nebbia  Neve Forte  Precipitazioni Forti  Vento > 20 kt
SIGMETs :   Varie  Temporali  Ghiacco  Turbolenza  Onda orograficha  Ceneri Vulcaniche






- Altitudine del aeroporto : 404 ft
- Codice IATA : WRO


EPWR - Wroclaw

ULTIMO METAR :
  • 261730Z 20007KT 9999 BKN020 10/07 Q0997

METARs OBSOLETI :
  • 261700Z 20008KT 9999 FEW028 10/06 Q0996
  • 261630Z 22010KT 9999 FEW021 11/07 Q0996
  • 261600Z 22010KT 190V250 9999 SCT021 12/07 Q0995
  • 261530Z 21010KT 170V230 9999 SCT021 13/08 Q0994
  • 261500Z 23010KT 200V260 9999 FEW016 BKN020 12/09 Q0994

TAF TAF EPWR
Valido dal 26 a 18 ore il 27 a 18 ore UTC


261730Z 2618/2718 24010KT 9999 BKN020
PROB30
TEMPO 2623/2706 3000 BR BKN009



MetMap, La meteo Aeronautica in un colpo d'occhio ! - Copyright ORBIFLY Dicembre 2007 - Disclaimer

ORBIFLY MET'MAP TEAM :

Programmazione e sviluppo : Alexandra Zaïnal
Concezione : Baudouin d'Aumeries
Aiuto per la programmazione : Marc-Olivier Méhu
Supporto tecnico e logistico : Manuel Goepfert
Aiuto per la traduzione : Arnaldo La Scala

Contatto : metmap@orbifly.com




FONTI E CREDITI :

   NOAA